sensor_id;sensor_type;location;lat;lon;timestamp;temperature;humidity
20856;DHT22;63058;49.424;8.420;2022-11-15T00:00:57;13.00;99.90
20856;DHT22;63058;49.424;8.420;2022-11-15T00:03:27;13.10;99.90
20856;DHT22;63058;49.424;8.420;2022-11-15T00:06:04;13.00;99.90
20856;DHT22;63058;49.424;8.420;2022-11-15T00:08:32;13.00;99.90
20856;DHT22;63058;49.424;8.420;2022-11-15T00:11:01;13.00;99.90
20856;DHT22;63058;49.424;8.420;2022-11-15T00:13:29;13.00;99.90
20856;DHT22;63058;49.424;8.420;2022-11-15T00:16:02;12.90;99.90
20856;DHT22;63058;49.424;8.420;2022-11-15T00:18:29;13.00;99.90
20856;DHT22;63058;49.424;8.420;2022-11-15T00:20:56;13.00;99.90
20856;DHT22;63058;49.424;8.420;2022-11-15T00:23:27;13.00;99.90
20856;DHT22;63058;49.424;8.420;2022-11-15T00:25:57;13.00;99.90
20856;DHT22;63058;49.424;8.420;2022-11-15T00:28:24;13.00;99.90
20856;DHT22;63058;49.424;8.420;2022-11-15T00:30:52;13.00;99.90
20856;DHT22;63058;49.424;8.420;2022-11-15T00:33:24;12.90;99.90
20856;DHT22;63058;49.424;8.420;2022-11-15T00:36:15;13.00;99.90
20856;DHT22;63058;49.424;8.420;2022-11-15T00:38:55;13.00;99.90
20856;DHT22;63058;49.424;8.420;2022-11-15T00:42:03;13.00;99.90
20856;DHT22;63058;49.424;8.420;2022-11-15T00:44:38;13.00;99.90
20856;DHT22;63058;49.424;8.420;2022-11-15T00:47:33;13.00;99.90
20856;DHT22;63058;49.424;8.420;2022-11-15T00:50:16;13.00;99.90
20856;DHT22;63058;49.424;8.420;2022-11-15T00:55:47;13.00;99.90
20856;DHT22;63058;49.424;8.420;2022-11-15T00:58:38;13.10;99.90
20856;DHT22;63058;49.424;8.420;2022-11-15T01:01:25;13.10;99.90
20856;DHT22;63058;49.424;8.420;2022-11-15T01:04:37;13.10;99.90
20856;DHT22;63058;49.424;8.420;2022-11-15T01:07:28;13.20;99.90
20856;DHT22;63058;49.424;8.420;2022-11-15T01:10:33;13.20;99.90
20856;DHT22;63058;49.424;8.420;2022-11-15T01:13:05;13.20;99.90
20856;DHT22;63058;49.424;8.420;2022-11-15T01:15:39;13.20;99.90
20856;DHT22;63058;49.424;8.420;2022-11-15T01:18:26;13.20;99.90
20856;DHT22;63058;49.424;8.420;2022-11-15T01:21:25;13.20;99.90
20856;DHT22;63058;49.424;8.420;2022-11-15T01:24:16;13.20;99.90
20856;DHT22;63058;49.424;8.420;2022-11-15T01:26:44;13.20;99.90
20856;DHT22;63058;49.424;8.420;2022-11-15T01:29:35;13.20;99.90
20856;DHT22;63058;49.424;8.420;2022-11-15T01:32:28;13.10;99.90
20856;DHT22;63058;49.424;8.420;2022-11-15T01:34:58;13.20;99.90
20856;DHT22;63058;49.424;8.420;2022-11-15T01:37:50;13.20;99.90
20856;DHT22;63058;49.424;8.420;2022-11-15T01:54:16;13.20;99.90
20856;DHT22;63058;49.424;8.420;2022-11-15T01:57:35;13.10;99.90
20856;DHT22;63058;49.424;8.420;2022-11-15T02:00:06;13.10;99.90
20856;DHT22;63058;49.424;8.420;2022-11-15T02:02:43;13.00;99.90
20856;DHT22;63058;49.424;8.420;2022-11-15T02:05:20;12.90;99.90
20856;DHT22;63058;49.424;8.420;2022-11-15T02:07:54;12.90;99.90
20856;DHT22;63058;49.424;8.420;2022-11-15T02:10:37;12.90;99.90
20856;DHT22;63058;49.424;8.420;2022-11-15T02:13:04;12.80;99.90
20856;DHT22;63058;49.424;8.420;2022-11-15T02:15:58;12.90;99.90
20856;DHT22;63058;49.424;8.420;2022-11-15T02:18:56;12.80;99.90
20856;DHT22;63058;49.424;8.420;2022-11-15T02:44:41;13.10;99.90
20856;DHT22;63058;49.424;8.420;2022-11-15T02:47:16;12.90;99.90
20856;DHT22;63058;49.424;8.420;2022-11-15T02:50:31;12.70;99.90
20856;DHT22;63058;49.424;8.420;2022-11-15T02:54:00;12.80;99.90
20856;DHT22;63058;49.424;8.420;2022-11-15T02:56:58;12.80;99.90
20856;DHT22;63058;49.424;8.420;2022-11-15T03:03:39;12.70;99.90
20856;DHT22;63058;49.424;8.420;2022-11-15T03:09:58;12.60;99.90
20856;DHT22;63058;49.424;8.420;2022-11-15T03:15:38;12.90;99.90
20856;DHT22;63058;49.424;8.420;2022-11-15T03:19:12;12.90;99.90
20856;DHT22;63058;49.424;8.420;2022-11-15T03:21:48;12.80;99.90
20856;DHT22;63058;49.424;8.420;2022-11-15T03:24:37;12.80;99.90
20856;DHT22;63058;49.424;8.420;2022-11-15T03:27:50;12.90;99.90
20856;DHT22;63058;49.424;8.420;2022-11-15T03:30:52;13.00;99.90
20856;DHT22;63058;49.424;8.420;2022-11-15T03:34:25;12.80;99.90
20856;DHT22;63058;49.424;8.420;2022-11-15T03:36:59;13.00;99.90
20856;DHT22;63058;49.424;8.420;2022-11-15T03:39:53;12.90;99.90
20856;DHT22;63058;49.424;8.420;2022-11-15T03:50:17;13.00;99.90
20856;DHT22;63058;49.424;8.420;2022-11-15T03:53:12;13.10;99.90
20856;DHT22;63058;49.424;8.420;2022-11-15T03:56:37;13.10;99.90
20856;DHT22;63058;49.424;8.420;2022-11-15T03:59:50;13.20;99.90
20856;DHT22;63058;49.424;8.420;2022-11-15T04:02:37;13.20;99.90
20856;DHT22;63058;49.424;8.420;2022-11-15T04:05:09;13.20;99.90
20856;DHT22;63058;49.424;8.420;2022-11-15T04:07:38;13.10;99.90
20856;DHT22;63058;49.424;8.420;2022-11-15T04:10:12;13.30;99.90
20856;DHT22;63058;49.424;8.420;2022-11-15T04:12:50;13.30;99.90
20856;DHT22;63058;49.424;8.420;2022-11-15T04:15:52;13.30;99.90
20856;DHT22;63058;49.424;8.420;2022-11-15T04:19:05;13.30;99.90
20856;DHT22;63058;49.424;8.420;2022-11-15T04:22:15;13.40;99.90
20856;DHT22;63058;49.424;8.420;2022-11-15T04:25:19;13.40;99.90
20856;DHT22;63058;49.424;8.420;2022-11-15T04:28:10;13.40;99.90
20856;DHT22;63058;49.424;8.420;2022-11-15T04:31:04;13.30;99.90
20856;DHT22;63058;49.424;8.420;2022-11-15T04:34:00;13.40;99.90
20856;DHT22;63058;49.424;8.420;2022-11-15T04:36:59;13.40;99.90
20856;DHT22;63058;49.424;8.420;2022-11-15T04:39:50;13.40;99.90
20856;DHT22;63058;49.424;8.420;2022-11-15T04:43:11;13.40;99.90
20856;DHT22;63058;49.424;8.420;2022-11-15T04:46:05;13.30;99.90
20856;DHT22;63058;49.424;8.420;2022-11-15T04:49:29;13.40;99.90
20856;DHT22;63058;49.424;8.420;2022-11-15T04:52:27;13.40;99.90
20856;DHT22;63058;49.424;8.420;2022-11-15T04:55:28;13.40;99.90
20856;DHT22;63058;49.424;8.420;2022-11-15T05:13:45;13.40;99.90
20856;DHT22;63058;49.424;8.420;2022-11-15T05:16:11;13.40;99.90
20856;DHT22;63058;49.424;8.420;2022-11-15T05:18:36;13.40;99.90
20856;DHT22;63058;49.424;8.420;2022-11-15T05:21:08;13.30;99.90
20856;DHT22;63058;49.424;8.420;2022-11-15T05:23:34;13.30;99.90
20856;DHT22;63058;49.424;8.420;2022-11-15T07:01:51;13.10;99.90
20856;DHT22;63058;49.424;8.420;2022-11-15T07:04:19;13.10;99.90
20856;DHT22;63058;49.424;8.420;2022-11-15T07:06:58;13.10;99.90
20856;DHT22;63058;49.424;8.420;2022-11-15T07:09:27;13.10;99.90
20856;DHT22;63058;49.424;8.420;2022-11-15T07:11:53;13.20;99.90
20856;DHT22;63058;49.424;8.420;2022-11-15T07:14:21;13.10;99.90
20856;DHT22;63058;49.424;8.420;2022-11-15T07:16:51;13.20;99.90
20856;DHT22;63058;49.424;8.420;2022-11-15T07:19:18;13.00;99.90
20856;DHT22;63058;49.424;8.420;2022-11-15T07:21:51;13.20;99.90
20856;DHT22;63058;49.424;8.420;2022-11-15T07:24:17;13.30;99.90
20856;DHT22;63058;49.424;8.420;2022-11-15T07:26:43;13.20;99.90
20856;DHT22;63058;49.424;8.420;2022-11-15T07:29:11;13.30;99.90
20856;DHT22;63058;49.424;8.420;2022-11-15T07:31:37;13.30;99.90
20856;DHT22;63058;49.424;8.420;2022-11-15T07:34:05;13.30;99.90
20856;DHT22;63058;49.424;8.420;2022-11-15T07:36:31;13.30;99.90
20856;DHT22;63058;49.424;8.420;2022-11-15T07:39:00;13.40;99.90
20856;DHT22;63058;49.424;8.420;2022-11-15T07:41:29;13.40;99.90
20856;DHT22;63058;49.424;8.420;2022-11-15T07:43:55;13.40;99.90
20856;DHT22;63058;49.424;8.420;2022-11-15T07:46:24;13.50;99.90
20856;DHT22;63058;49.424;8.420;2022-11-15T07:48:49;13.50;99.90
20856;DHT22;63058;49.424;8.420;2022-11-15T07:51:22;13.50;99.90
20856;DHT22;63058;49.424;8.420;2022-11-15T07:53:48;13.60;99.90
20856;DHT22;63058;49.424;8.420;2022-11-15T07:56:14;13.60;99.90
20856;DHT22;63058;49.424;8.420;2022-11-15T07:58:40;13.70;99.90
20856;DHT22;63058;49.424;8.420;2022-11-15T08:01:10;13.70;99.90
20856;DHT22;63058;49.424;8.420;2022-11-15T08:03:37;13.70;99.90
20856;DHT22;63058;49.424;8.420;2022-11-15T08:06:08;13.70;99.90
20856;DHT22;63058;49.424;8.420;2022-11-15T08:08:34;13.70;99.90
20856;DHT22;63058;49.424;8.420;2022-11-15T08:11:31;13.80;99.90
20856;DHT22;63058;49.424;8.420;2022-11-15T08:13:58;13.70;99.90
20856;DHT22;63058;49.424;8.420;2022-11-15T08:16:30;13.80;99.90
20856;DHT22;63058;49.424;8.420;2022-11-15T08:18:57;13.80;99.90
20856;DHT22;63058;49.424;8.420;2022-11-15T08:21:44;13.90;99.90
20856;DHT22;63058;49.424;8.420;2022-11-15T08:24:13;13.90;99.90
20856;DHT22;63058;49.424;8.420;2022-11-15T08:26:41;13.90;99.90
20856;DHT22;63058;49.424;8.420;2022-11-15T08:29:19;14.00;99.90
20856;DHT22;63058;49.424;8.420;2022-11-15T08:31:50;14.00;99.90
20856;DHT22;63058;49.424;8.420;2022-11-15T08:34:16;14.00;99.90
20856;DHT22;63058;49.424;8.420;2022-11-15T08:36:44;14.00;99.90
20856;DHT22;63058;49.424;8.420;2022-11-15T08:39:11;14.10;99.90
20856;DHT22;63058;49.424;8.420;2022-11-15T08:41:38;14.10;99.90
20856;DHT22;63058;49.424;8.420;2022-11-15T08:44:04;14.10;99.90
20856;DHT22;63058;49.424;8.420;2022-11-15T08:46:34;14.10;99.90
20856;DHT22;63058;49.424;8.420;2022-11-15T08:49:07;14.10;99.90
20856;DHT22;63058;49.424;8.420;2022-11-15T08:51:33;14.10;99.90
20856;DHT22;63058;49.424;8.420;2022-11-15T08:54:03;14.00;99.90
20856;DHT22;63058;49.424;8.420;2022-11-15T08:56:29;14.10;99.90
20856;DHT22;63058;49.424;8.420;2022-11-15T08:58:55;14.10;99.90
20856;DHT22;63058;49.424;8.420;2022-11-15T09:01:26;14.10;99.90
20856;DHT22;63058;49.424;8.420;2022-11-15T09:03:52;14.10;99.90
20856;DHT22;63058;49.424;8.420;2022-11-15T09:06:21;14.10;99.90
20856;DHT22;63058;49.424;8.420;2022-11-15T09:08:47;14.10;99.90
20856;DHT22;63058;49.424;8.420;2022-11-15T09:11:17;14.10;99.90
20856;DHT22;63058;49.424;8.420;2022-11-15T09:13:47;14.10;99.90
20856;DHT22;63058;49.424;8.420;2022-11-15T09:16:14;14.20;99.90
20856;DHT22;63058;49.424;8.420;2022-11-15T09:18:41;14.20;99.90
20856;DHT22;63058;49.424;8.420;2022-11-15T09:21:07;14.20;99.90
20856;DHT22;63058;49.424;8.420;2022-11-15T09:23:33;14.20;99.90
20856;DHT22;63058;49.424;8.420;2022-11-15T09:26:01;14.20;99.90
20856;DHT22;63058;49.424;8.420;2022-11-15T09:28:29;14.20;99.90
20856;DHT22;63058;49.424;8.420;2022-11-15T09:30:59;14.30;99.90
20856;DHT22;63058;49.424;8.420;2022-11-15T09:33:29;14.30;99.90
20856;DHT22;63058;49.424;8.420;2022-11-15T09:36:03;14.30;99.90
20856;DHT22;63058;49.424;8.420;2022-11-15T09:38:30;14.40;99.90
20856;DHT22;63058;49.424;8.420;2022-11-15T09:49:27;14.60;99.90
20856;DHT22;63058;49.424;8.420;2022-11-15T09:51:58;14.70;99.90
20856;DHT22;63058;49.424;8.420;2022-11-15T09:54:36;14.80;99.90
20856;DHT22;63058;49.424;8.420;2022-11-15T10:02:53;15.00;99.90
20856;DHT22;63058;49.424;8.420;2022-11-15T10:05:23;15.10;99.90
20856;DHT22;63058;49.424;8.420;2022-11-15T10:12:54;15.20;99.90
20856;DHT22;63058;49.424;8.420;2022-11-15T10:15:21;15.00;99.90
20856;DHT22;63058;49.424;8.420;2022-11-15T10:23:15;15.20;99.90
20856;DHT22;63058;49.424;8.420;2022-11-15T10:25:41;15.20;99.90
20856;DHT22;63058;49.424;8.420;2022-11-15T10:28:16;15.20;99.90
20856;DHT22;63058;49.424;8.420;2022-11-15T10:30:52;15.20;99.90
20856;DHT22;63058;49.424;8.420;2022-11-15T10:36:15;15.30;99.90
20856;DHT22;63058;49.424;8.420;2022-11-15T10:41:44;15.30;99.90
20856;DHT22;63058;49.424;8.420;2022-11-15T10:49:31;15.40;99.90
20856;DHT22;63058;49.424;8.420;2022-11-15T10:51:59;15.30;99.90
20856;DHT22;63058;49.424;8.420;2022-11-15T10:54:50;15.40;99.90
20856;DHT22;63058;49.424;8.420;2022-11-15T10:57:23;15.30;99.90
20856;DHT22;63058;49.424;8.420;2022-11-15T10:59:53;15.40;99.90
20856;DHT22;63058;49.424;8.420;2022-11-15T11:05:30;15.40;99.90
20856;DHT22;63058;49.424;8.420;2022-11-15T11:08:04;15.50;99.90
20856;DHT22;63058;49.424;8.420;2022-11-15T11:10:31;15.50;99.90
20856;DHT22;63058;49.424;8.420;2022-11-15T11:13:29;15.50;99.90
20856;DHT22;63058;49.424;8.420;2022-11-15T11:16:19;15.50;99.90
20856;DHT22;63058;49.424;8.420;2022-11-15T11:41:02;17.10;99.90
20856;DHT22;63058;49.424;8.420;2022-11-15T11:46:38;17.20;99.40
20856;DHT22;63058;49.424;8.420;2022-11-15T11:52:00;17.40;99.90
20856;DHT22;63058;49.424;8.420;2022-11-15T11:54:42;17.40;99.90
20856;DHT22;63058;49.424;8.420;2022-11-15T11:57:21;17.40;99.40
20856;DHT22;63058;49.424;8.420;2022-11-15T12:00:03;17.30;99.10
20856;DHT22;63058;49.424;8.420;2022-11-15T12:05:48;17.20;98.80
20856;DHT22;63058;49.424;8.420;2022-11-15T12:08:46;17.00;98.20
20856;DHT22;63058;49.424;8.420;2022-11-15T12:17:19;16.80;99.80
20856;DHT22;63058;49.424;8.420;2022-11-15T12:20:20;16.80;99.90
20856;DHT22;63058;49.424;8.420;2022-11-15T12:23:19;16.70;99.60
20856;DHT22;63058;49.424;8.420;2022-11-15T12:25:59;16.80;99.60
20856;DHT22;63058;49.424;8.420;2022-11-15T12:28:57;16.80;99.80
20856;DHT22;63058;49.424;8.420;2022-11-15T12:31:36;16.80;99.60
20856;DHT22;63058;49.424;8.420;2022-11-15T12:34:15;16.70;99.80
20856;DHT22;63058;49.424;8.420;2022-11-15T12:36:58;16.80;99.80
20856;DHT22;63058;49.424;8.420;2022-11-15T12:44:59;16.80;99.90
20856;DHT22;63058;49.424;8.420;2022-11-15T12:47:27;16.70;99.90
20856;DHT22;63058;49.424;8.420;2022-11-15T12:49:53;16.80;99.90
20856;DHT22;63058;49.424;8.420;2022-11-15T12:52:19;16.80;99.90
20856;DHT22;63058;49.424;8.420;2022-11-15T12:54:51;16.90;99.90
20856;DHT22;63058;49.424;8.420;2022-11-15T12:59:56;16.80;99.90
20856;DHT22;63058;49.424;8.420;2022-11-15T13:02:41;16.90;99.90
20856;DHT22;63058;49.424;8.420;2022-11-15T13:17:22;17.00;99.90
20856;DHT22;63058;49.424;8.420;2022-11-15T13:22:53;17.10;99.90
20856;DHT22;63058;49.424;8.420;2022-11-15T13:28:21;17.10;99.90
20856;DHT22;63058;49.424;8.420;2022-11-15T13:35:45;17.10;99.90
20856;DHT22;63058;49.424;8.420;2022-11-15T13:38:25;17.10;99.90
20856;DHT22;63058;49.424;8.420;2022-11-15T13:40:55;17.10;99.50
20856;DHT22;63058;49.424;8.420;2022-11-15T13:43:36;17.10;99.90
20856;DHT22;63058;49.424;8.420;2022-11-15T13:46:21;17.10;99.60
20856;DHT22;63058;49.424;8.420;2022-11-15T13:51:30;17.00;99.90
20856;DHT22;63058;49.424;8.420;2022-11-15T14:00:24;17.00;99.40
20856;DHT22;63058;49.424;8.420;2022-11-15T14:03:24;17.00;99.20
20856;DHT22;63058;49.424;8.420;2022-11-15T14:16:17;16.70;98.30
20856;DHT22;63058;49.424;8.420;2022-11-15T14:22:28;16.50;98.30
20856;DHT22;63058;49.424;8.420;2022-11-15T14:25:14;16.50;98.50
20856;DHT22;63058;49.424;8.420;2022-11-15T14:31:07;16.30;98.40
20856;DHT22;63058;49.424;8.420;2022-11-15T14:37:21;16.00;98.60
20856;DHT22;63058;49.424;8.420;2022-11-15T14:52:47;15.90;99.60
20856;DHT22;63058;49.424;8.420;2022-11-15T14:55:25;15.80;99.40
20856;DHT22;63058;49.424;8.420;2022-11-15T14:57:55;15.90;99.40
20856;DHT22;63058;49.424;8.420;2022-11-15T15:00:34;15.80;99.50
20856;DHT22;63058;49.424;8.420;2022-11-15T15:03:09;15.90;98.90
20856;DHT22;63058;49.424;8.420;2022-11-15T15:05:42;15.80;99.00
20856;DHT22;63058;49.424;8.420;2022-11-15T15:08:08;15.80;99.30
20856;DHT22;63058;49.424;8.420;2022-11-15T15:10:45;15.80;99.60
20856;DHT22;63058;49.424;8.420;2022-11-15T15:13:20;15.80;99.20
20856;DHT22;63058;49.424;8.420;2022-11-15T15:15:48;15.70;99.50
20856;DHT22;63058;49.424;8.420;2022-11-15T15:18:14;15.60;99.90
20856;DHT22;63058;49.424;8.420;2022-11-15T15:20:44;15.70;99.90
20856;DHT22;63058;49.424;8.420;2022-11-15T15:23:18;15.80;99.90
20856;DHT22;63058;49.424;8.420;2022-11-15T15:25:48;15.80;99.80
20856;DHT22;63058;49.424;8.420;2022-11-15T15:28:21;15.80;99.90
20856;DHT22;63058;49.424;8.420;2022-11-15T15:31:00;15.80;99.90
20856;DHT22;63058;49.424;8.420;2022-11-15T15:33:25;15.80;99.60
20856;DHT22;63058;49.424;8.420;2022-11-15T15:35:52;15.80;99.90
20856;DHT22;63058;49.424;8.420;2022-11-15T15:38:29;15.80;99.90
20856;DHT22;63058;49.424;8.420;2022-11-15T15:41:17;15.80;99.50
20856;DHT22;63058;49.424;8.420;2022-11-15T15:43:46;15.80;99.30
20856;DHT22;63058;49.424;8.420;2022-11-15T15:46:15;15.70;99.80
20856;DHT22;63058;49.424;8.420;2022-11-15T15:48:44;15.80;99.90
20856;DHT22;63058;49.424;8.420;2022-11-15T15:51:27;15.80;99.90
20856;DHT22;63058;49.424;8.420;2022-11-15T15:53:59;15.80;99.50
20856;DHT22;63058;49.424;8.420;2022-11-15T15:56:27;15.70;99.90
20856;DHT22;63058;49.424;8.420;2022-11-15T15:59:01;15.70;99.80
20856;DHT22;63058;49.424;8.420;2022-11-15T16:01:27;15.70;99.70
20856;DHT22;63058;49.424;8.420;2022-11-15T16:03:53;15.70;99.90
20856;DHT22;63058;49.424;8.420;2022-11-15T16:06:39;15.70;99.90
20856;DHT22;63058;49.424;8.420;2022-11-15T16:09:18;15.70;99.40
20856;DHT22;63058;49.424;8.420;2022-11-15T16:12:07;15.70;99.80
20856;DHT22;63058;49.424;8.420;2022-11-15T16:14:33;15.60;99.90
20856;DHT22;63058;49.424;8.420;2022-11-15T16:17:02;15.60;99.90
20856;DHT22;63058;49.424;8.420;2022-11-15T16:19:30;15.60;99.90
20856;DHT22;63058;49.424;8.420;2022-11-15T16:21:56;15.50;99.90
20856;DHT22;63058;49.424;8.420;2022-11-15T16:24:29;15.60;99.90
20856;DHT22;63058;49.424;8.420;2022-11-15T16:27:05;15.50;99.90
20856;DHT22;63058;49.424;8.420;2022-11-15T16:42:53;15.50;99.80
20856;DHT22;63058;49.424;8.420;2022-11-15T16:45:51;15.30;99.50
20856;DHT22;63058;49.424;8.420;2022-11-15T16:48:25;15.50;99.40
20856;DHT22;63058;49.424;8.420;2022-11-15T16:50:57;15.40;99.60
20856;DHT22;63058;49.424;8.420;2022-11-15T16:53:26;15.40;99.80
20856;DHT22;63058;49.424;8.420;2022-11-15T16:55:55;15.40;99.70
20856;DHT22;63058;49.424;8.420;2022-11-15T16:58:27;15.40;99.80
20856;DHT22;63058;49.424;8.420;2022-11-15T17:00:56;15.40;99.70
20856;DHT22;63058;49.424;8.420;2022-11-15T17:03:23;15.30;99.70
20856;DHT22;63058;49.424;8.420;2022-11-15T17:05:49;15.40;99.90
20856;DHT22;63058;49.424;8.420;2022-11-15T17:08:18;15.20;99.90
20856;DHT22;63058;49.424;8.420;2022-11-15T17:10:47;15.30;99.80
20856;DHT22;63058;49.424;8.420;2022-11-15T17:13:13;15.30;99.80
20856;DHT22;63058;49.424;8.420;2022-11-15T17:15:38;15.30;99.80
20856;DHT22;63058;49.424;8.420;2022-11-15T17:18:13;15.20;99.80
20856;DHT22;63058;49.424;8.420;2022-11-15T17:20:40;15.20;99.60
20856;DHT22;63058;49.424;8.420;2022-11-15T17:23:11;15.20;99.90
20856;DHT22;63058;49.424;8.420;2022-11-15T17:25:57;15.20;99.80
20856;DHT22;63058;49.424;8.420;2022-11-15T17:28:23;15.00;99.90
20856;DHT22;63058;49.424;8.420;2022-11-15T17:30:52;15.10;99.90
20856;DHT22;63058;49.424;8.420;2022-11-15T17:33:18;15.10;99.90
20856;DHT22;63058;49.424;8.420;2022-11-15T17:35:54;15.00;99.90
20856;DHT22;63058;49.424;8.420;2022-11-15T17:38:27;15.00;99.90
20856;DHT22;63058;49.424;8.420;2022-11-15T17:41:12;14.90;99.90
20856;DHT22;63058;49.424;8.420;2022-11-15T17:43:42;14.90;99.90
20856;DHT22;63058;49.424;8.420;2022-11-15T17:46:22;14.90;99.90
20856;DHT22;63058;49.424;8.420;2022-11-15T17:48:50;14.90;99.90
20856;DHT22;63058;49.424;8.420;2022-11-15T17:51:46;14.90;99.90
20856;DHT22;63058;49.424;8.420;2022-11-15T17:54:13;14.90;99.90
20856;DHT22;63058;49.424;8.420;2022-11-15T17:56:39;14.90;99.90
20856;DHT22;63058;49.424;8.420;2022-11-15T17:59:24;14.90;99.90
20856;DHT22;63058;49.424;8.420;2022-11-15T18:02:10;14.90;99.90
20856;DHT22;63058;49.424;8.420;2022-11-15T18:04:36;14.90;99.90
20856;DHT22;63058;49.424;8.420;2022-11-15T18:07:30;14.90;99.90
20856;DHT22;63058;49.424;8.420;2022-11-15T18:10:11;15.00;99.90
20856;DHT22;63058;49.424;8.420;2022-11-15T18:12:42;14.80;99.90
20856;DHT22;63058;49.424;8.420;2022-11-15T18:19:26;14.90;99.90
20856;DHT22;63058;49.424;8.420;2022-11-15T18:21:54;14.90;99.90
20856;DHT22;63058;49.424;8.420;2022-11-15T18:24:31;14.90;99.90
20856;DHT22;63058;49.424;8.420;2022-11-15T18:26:59;14.90;99.90
20856;DHT22;63058;49.424;8.420;2022-11-15T18:29:25;14.90;99.90
20856;DHT22;63058;49.424;8.420;2022-11-15T18:35:06;14.90;99.90
20856;DHT22;63058;49.424;8.420;2022-11-15T18:37:55;14.70;99.90
20856;DHT22;63058;49.424;8.420;2022-11-15T18:40:50;14.90;99.90
20856;DHT22;63058;49.424;8.420;2022-11-15T18:46:33;14.90;99.90
20856;DHT22;63058;49.424;8.420;2022-11-15T18:49:12;14.80;99.90
20856;DHT22;63058;49.424;8.420;2022-11-15T18:51:59;14.90;99.90
20856;DHT22;63058;49.424;8.420;2022-11-15T18:54:41;14.90;99.90
20856;DHT22;63058;49.424;8.420;2022-11-15T18:57:10;14.80;99.90
20856;DHT22;63058;49.424;8.420;2022-11-15T18:59:55;14.80;99.90
20856;DHT22;63058;49.424;8.420;2022-11-15T19:02:53;14.80;99.90
20856;DHT22;63058;49.424;8.420;2022-11-15T19:09:08;14.70;99.90
20856;DHT22;63058;49.424;8.420;2022-11-15T19:12:28;14.80;99.90
20856;DHT22;63058;49.424;8.420;2022-11-15T19:15:28;14.80;99.90
20856;DHT22;63058;49.424;8.420;2022-11-15T19:18:11;14.70;99.90
20856;DHT22;63058;49.424;8.420;2022-11-15T19:21:05;14.70;99.90
20856;DHT22;63058;49.424;8.420;2022-11-15T19:23:49;14.60;99.90
20856;DHT22;63058;49.424;8.420;2022-11-15T19:26:22;14.60;99.90
20856;DHT22;63058;49.424;8.420;2022-11-15T19:29:06;14.70;99.90
20856;DHT22;63058;49.424;8.420;2022-11-15T19:31:44;14.70;99.90
20856;DHT22;63058;49.424;8.420;2022-11-15T19:34:17;14.60;99.90
20856;DHT22;63058;49.424;8.420;2022-11-15T19:37:22;14.40;99.90
20856;DHT22;63058;49.424;8.420;2022-11-15T19:39:54;14.50;99.90
20856;DHT22;63058;49.424;8.420;2022-11-15T19:42:28;14.50;99.90
20856;DHT22;63058;49.424;8.420;2022-11-15T19:45:14;14.50;99.90
20856;DHT22;63058;49.424;8.420;2022-11-15T19:47:52;14.50;99.90
20856;DHT22;63058;49.424;8.420;2022-11-15T19:50:35;14.50;99.90
20856;DHT22;63058;49.424;8.420;2022-11-15T19:53:22;14.50;99.90
20856;DHT22;63058;49.424;8.420;2022-11-15T19:56:00;14.60;99.90
20856;DHT22;63058;49.424;8.420;2022-11-15T20:01:49;14.50;99.90
20856;DHT22;63058;49.424;8.420;2022-11-15T20:04:15;14.50;99.90
20856;DHT22;63058;49.424;8.420;2022-11-15T20:06:55;14.40;99.90
20856;DHT22;63058;49.424;8.420;2022-11-15T20:09:25;14.50;99.90
20856;DHT22;63058;49.424;8.420;2022-11-15T20:11:51;14.50;99.90
20856;DHT22;63058;49.424;8.420;2022-11-15T20:14:21;14.60;99.90
20856;DHT22;63058;49.424;8.420;2022-11-15T20:17:26;14.50;99.90
20856;DHT22;63058;49.424;8.420;2022-11-15T20:19:55;14.60;99.90
20856;DHT22;63058;49.424;8.420;2022-11-15T20:22:20;14.50;99.90
20856;DHT22;63058;49.424;8.420;2022-11-15T20:24:46;14.60;99.90
20856;DHT22;63058;49.424;8.420;2022-11-15T20:27:12;14.60;99.90
20856;DHT22;63058;49.424;8.420;2022-11-15T20:29:49;14.60;99.90
20856;DHT22;63058;49.424;8.420;2022-11-15T20:32:21;14.60;99.90
20856;DHT22;63058;49.424;8.420;2022-11-15T20:34:47;14.60;99.90
20856;DHT22;63058;49.424;8.420;2022-11-15T20:37:13;14.60;99.90
20856;DHT22;63058;49.424;8.420;2022-11-15T20:39:39;14.60;99.90
20856;DHT22;63058;49.424;8.420;2022-11-15T20:42:09;14.60;99.90
20856;DHT22;63058;49.424;8.420;2022-11-15T20:44:38;14.60;99.90
20856;DHT22;63058;49.424;8.420;2022-11-15T20:47:07;14.60;99.90
20856;DHT22;63058;49.424;8.420;2022-11-15T20:49:34;14.60;99.90
20856;DHT22;63058;49.424;8.420;2022-11-15T20:52:09;14.60;99.90
20856;DHT22;63058;49.424;8.420;2022-11-15T20:54:38;14.60;99.90
20856;DHT22;63058;49.424;8.420;2022-11-15T20:57:04;14.60;99.90
20856;DHT22;63058;49.424;8.420;2022-11-15T20:59:32;14.60;99.90
20856;DHT22;63058;49.424;8.420;2022-11-15T21:02:05;14.60;99.90
20856;DHT22;63058;49.424;8.420;2022-11-15T21:04:33;14.60;99.90
20856;DHT22;63058;49.424;8.420;2022-11-15T21:07:03;14.60;99.90
20856;DHT22;63058;49.424;8.420;2022-11-15T21:09:33;14.60;99.90
20856;DHT22;63058;49.424;8.420;2022-11-15T21:12:22;14.60;99.90
20856;DHT22;63058;49.424;8.420;2022-11-15T21:14:51;14.60;99.90
20856;DHT22;63058;49.424;8.420;2022-11-15T21:17:30;14.60;99.90
20856;DHT22;63058;49.424;8.420;2022-11-15T21:19:57;14.60;99.90
20856;DHT22;63058;49.424;8.420;2022-11-15T21:22:32;14.60;99.90
20856;DHT22;63058;49.424;8.420;2022-11-15T21:24:58;14.60;99.90
20856;DHT22;63058;49.424;8.420;2022-11-15T21:27:25;14.50;99.90
20856;DHT22;63058;49.424;8.420;2022-11-15T21:30:00;14.60;99.90
20856;DHT22;63058;49.424;8.420;2022-11-15T21:32:43;14.60;99.90
20856;DHT22;63058;49.424;8.420;2022-11-15T21:35:15;14.60;99.90
20856;DHT22;63058;49.424;8.420;2022-11-15T21:37:44;14.60;99.90
20856;DHT22;63058;49.424;8.420;2022-11-15T21:40:14;14.60;99.90
20856;DHT22;63058;49.424;8.420;2022-11-15T21:42:46;14.60;99.90
20856;DHT22;63058;49.424;8.420;2022-11-15T21:48:38;14.60;99.90
20856;DHT22;63058;49.424;8.420;2022-11-15T21:51:12;14.60;99.90
20856;DHT22;63058;49.424;8.420;2022-11-15T21:54:00;14.60;99.90
20856;DHT22;63058;49.424;8.420;2022-11-15T21:56:28;14.60;99.90
20856;DHT22;63058;49.424;8.420;2022-11-15T21:59:08;14.50;99.90
20856;DHT22;63058;49.424;8.420;2022-11-15T22:01:54;14.50;99.90
20856;DHT22;63058;49.424;8.420;2022-11-15T22:04:50;14.50;99.90
20856;DHT22;63058;49.424;8.420;2022-11-15T22:07:30;14.50;99.90
20856;DHT22;63058;49.424;8.420;2022-11-15T22:10:00;14.50;99.90
20856;DHT22;63058;49.424;8.420;2022-11-15T22:12:26;14.50;99.90
20856;DHT22;63058;49.424;8.420;2022-11-15T22:14:55;14.40;99.90
20856;DHT22;63058;49.424;8.420;2022-11-15T22:17:44;14.40;99.90
20856;DHT22;63058;49.424;8.420;2022-11-15T22:20:31;14.40;99.90
20856;DHT22;63058;49.424;8.420;2022-11-15T22:23:12;14.30;99.90
20856;DHT22;63058;49.424;8.420;2022-11-15T22:25:43;14.40;99.90